createdAt,value
2023-02-11T00:00:34.373Z,7.80
2023-02-11T00:03:26.314Z,6.80
2023-02-11T00:06:18.031Z,7.10
2023-02-11T00:09:09.997Z,7.50
2023-02-11T00:12:01.265Z,7.30
2023-02-11T00:14:52.828Z,7.70
2023-02-11T00:17:44.326Z,6.90
2023-02-11T00:20:35.444Z,7.50
2023-02-11T00:23:27.198Z,9.40
2023-02-11T00:26:20.437Z,8.00
2023-02-11T00:29:11.618Z,6.80
2023-02-11T00:32:05.708Z,7.90
2023-02-11T00:34:57.286Z,7.40
2023-02-11T00:37:48.498Z,7.70
2023-02-11T00:40:39.672Z,8.90
2023-02-11T00:43:31.396Z,8.70
2023-02-11T00:46:24.638Z,9.20
2023-02-11T00:49:16.372Z,8.10
2023-02-11T00:52:07.688Z,8.90
2023-02-11T00:54:58.874Z,9.50
2023-02-11T00:57:50.422Z,9.90
2023-02-11T01:00:41.708Z,10.10
2023-02-11T01:03:33.398Z,9.30
2023-02-11T01:06:25.184Z,8.70
2023-02-11T01:09:17.697Z,8.80
2023-02-11T01:12:10.471Z,10.00
2023-02-11T01:15:08.573Z,7.80
2023-02-11T01:18:30.086Z,7.90
2023-02-11T01:21:20.936Z,6.90
2023-02-11T01:24:12.791Z,8.10
2023-02-11T01:27:04.475Z,7.10
2023-02-11T01:29:58.989Z,7.70
2023-02-11T01:32:55.406Z,6.40
2023-02-11T01:35:48.330Z,6.20
2023-02-11T01:38:41.449Z,7.10
2023-02-11T01:41:33.689Z,6.10
2023-02-11T01:44:32.741Z,6.00
2023-02-11T01:47:25.554Z,5.40
2023-02-11T01:50:17.507Z,5.40
2023-02-11T01:53:25.798Z,6.40
2023-02-11T01:56:34.721Z,6.40
2023-02-11T01:59:33.341Z,6.00
2023-02-11T02:02:30.234Z,6.30
2023-02-11T02:05:29.334Z,6.90
2023-02-11T02:08:26.791Z,6.70
2023-02-11T02:11:24.514Z,6.20
2023-02-11T02:14:15.880Z,6.40
2023-02-11T02:17:07.178Z,5.80
2023-02-11T02:20:35.043Z,6.50
2023-02-11T02:23:37.430Z,6.10
2023-02-11T02:27:14.334Z,6.30
2023-02-11T02:30:27.443Z,5.20
2023-02-11T02:33:32.838Z,6.00
2023-02-11T02:36:35.488Z,5.50
2023-02-11T02:39:31.095Z,5.70
2023-02-11T02:42:27.530Z,5.40
2023-02-11T02:45:23.376Z,5.70
2023-02-11T02:48:29.409Z,6.10
2023-02-11T02:51:52.634Z,6.00
2023-02-11T02:55:10.976Z,6.50
2023-02-11T02:58:49.038Z,6.60
2023-02-11T03:01:51.612Z,5.50
2023-02-11T03:04:54.845Z,6.60
2023-02-11T03:07:53.461Z,5.10
2023-02-11T03:10:49.415Z,6.80
2023-02-11T03:13:42.741Z,6.90
2023-02-11T03:16:40.690Z,6.10
2023-02-11T03:19:37.936Z,7.10
2023-02-11T03:22:36.360Z,5.20
2023-02-11T03:25:33.666Z,6.20
2023-02-11T03:28:33.356Z,6.50
2023-02-11T03:31:38.264Z,6.40
2023-02-11T03:34:40.971Z,6.50
2023-02-11T03:37:40.418Z,5.70
2023-02-11T03:40:44.535Z,6.30
2023-02-11T03:43:42.206Z,6.90
2023-02-11T03:46:37.488Z,6.80
2023-02-11T03:49:32.905Z,6.00
2023-02-11T03:52:29.294Z,6.40
2023-02-11T03:55:26.012Z,5.70
2023-02-11T03:58:17.197Z,6.40
2023-02-11T04:01:13.217Z,6.20
2023-02-11T04:04:05.499Z,6.00
2023-02-11T04:06:57.061Z,6.30
2023-02-11T04:09:48.682Z,6.10
2023-02-11T04:12:39.918Z,6.20
2023-02-11T04:15:30.805Z,5.50
2023-02-11T04:18:23.337Z,5.00
2023-02-11T04:21:16.469Z,6.30
2023-02-11T04:24:08.498Z,5.90
2023-02-11T04:27:00.124Z,4.60
2023-02-11T04:29:55.554Z,5.10
2023-02-11T04:32:46.743Z,4.90
2023-02-11T04:35:38.438Z,6.30
2023-02-11T04:38:30.090Z,6.20
2023-02-11T04:41:29.455Z,5.30
2023-02-11T04:44:20.753Z,5.10
2023-02-11T04:47:12.905Z,5.30
2023-02-11T04:50:04.647Z,5.70
2023-02-11T04:52:56.401Z,5.50
2023-02-11T04:55:50.392Z,6.60
2023-02-11T04:58:41.848Z,5.50
2023-02-11T05:01:33.736Z,5.50
2023-02-11T05:04:25.388Z,5.40
2023-02-11T05:07:16.393Z,5.60
2023-02-11T05:10:09.427Z,5.50
2023-02-11T05:13:00.923Z,4.90
2023-02-11T05:15:52.166Z,5.80
2023-02-11T05:18:45.242Z,5.00
2023-02-11T05:21:36.980Z,5.00
2023-02-11T05:24:28.495Z,5.80
2023-02-11T05:27:19.784Z,4.70
2023-02-11T05:30:13.750Z,5.40
2023-02-11T05:33:05.331Z,5.40
2023-02-11T05:36:02.478Z,6.50
2023-02-11T05:38:54.283Z,5.60
2023-02-11T05:41:45.636Z,5.00
2023-02-11T05:44:37.365Z,5.30
2023-02-11T05:47:28.717Z,5.70
2023-02-11T05:50:21.149Z,5.70
2023-02-11T05:53:17.067Z,5.30
2023-02-11T05:56:10.739Z,7.10
2023-02-11T05:59:03.332Z,7.20
2023-02-11T06:01:55.525Z,6.90
2023-02-11T06:04:46.696Z,9.00
2023-02-11T06:07:40.409Z,7.00
2023-02-11T06:10:31.605Z,6.80
2023-02-11T06:13:22.715Z,6.90
2023-02-11T06:16:14.190Z,6.00
2023-02-11T06:19:06.669Z,7.00
2023-02-11T06:21:58.034Z,7.40
2023-02-11T06:25:00.928Z,5.80
2023-02-11T06:27:52.569Z,7.40
2023-02-11T06:30:43.347Z,7.40
2023-02-11T06:33:33.819Z,8.70
2023-02-11T06:36:25.407Z,8.30
2023-02-11T06:39:17.462Z,8.20
2023-02-11T06:42:08.255Z,7.10
2023-02-11T06:44:59.661Z,7.00
2023-02-11T06:47:52.917Z,7.10
2023-02-11T06:50:43.555Z,6.90
2023-02-11T06:53:36.568Z,7.20
2023-02-11T06:56:28.138Z,6.40
2023-02-11T06:59:21.484Z,6.60
2023-02-11T07:02:14.404Z,7.30
2023-02-11T07:05:06.768Z,6.60
2023-02-11T07:07:58.992Z,6.30
2023-02-11T07:10:50.417Z,7.10
2023-02-11T07:13:40.930Z,7.10
2023-02-11T07:16:32.662Z,9.30
2023-02-11T07:19:26.229Z,8.70
2023-02-11T07:22:16.792Z,8.90
2023-02-11T07:25:08.690Z,7.80
2023-02-11T07:28:00.448Z,7.90
2023-02-11T07:30:51.070Z,8.30
2023-02-11T07:33:42.150Z,10.00
2023-02-11T07:36:34.108Z,8.80
2023-02-11T07:39:27.692Z,8.50
2023-02-11T07:42:18.892Z,9.10
2023-02-11T07:45:11.544Z,7.60
2023-02-11T07:48:02.828Z,8.50
2023-02-11T07:50:54.290Z,7.50
2023-02-11T07:53:45.986Z,7.80
2023-02-11T07:56:37.954Z,8.00
2023-02-11T07:59:29.124Z,8.40
2023-02-11T08:02:20.371Z,9.20
2023-02-11T08:05:11.768Z,10.00
2023-02-11T08:08:04.139Z,10.10
2023-02-11T08:10:55.129Z,11.60
2023-02-11T08:13:46.257Z,9.70
2023-02-11T08:16:41.310Z,11.60
2023-02-11T08:19:34.856Z,9.40
2023-02-11T08:22:25.831Z,9.50
2023-02-11T08:25:16.568Z,10.30
2023-02-11T08:28:09.445Z,12.50
2023-02-11T08:31:08.854Z,11.60
2023-02-11T08:34:00.189Z,11.50
2023-02-11T08:36:51.494Z,12.80
2023-02-11T08:39:41.781Z,13.10
2023-02-11T08:42:32.235Z,13.40
2023-02-11T08:45:23.389Z,13.90
2023-02-11T08:48:14.521Z,14.40
2023-02-11T08:51:09.991Z,14.40
2023-02-11T08:54:02.293Z,15.00
2023-02-11T08:56:55.487Z,13.80
2023-02-11T08:59:46.170Z,11.30
2023-02-11T09:02:36.620Z,11.60
2023-02-11T09:05:27.775Z,10.90
2023-02-11T09:08:18.700Z,10.40
2023-02-11T09:11:09.988Z,9.40
2023-02-11T09:14:01.116Z,10.90
2023-02-11T09:16:53.390Z,9.40
2023-02-11T09:19:43.933Z,9.00
2023-02-11T09:22:34.507Z,12.70
2023-02-11T09:25:26.140Z,11.30
2023-02-11T09:28:17.842Z,8.60
2023-02-11T09:31:10.908Z,8.30
2023-02-11T09:34:04.521Z,9.10
2023-02-11T09:36:55.492Z,10.00
2023-02-11T09:39:47.632Z,9.10
2023-02-11T09:42:49.764Z,10.30
2023-02-11T09:45:40.999Z,10.10
2023-02-11T09:48:39.875Z,10.70
2023-02-11T09:51:43.569Z,10.30
2023-02-11T09:54:44.334Z,10.00
2023-02-11T09:57:38.153Z,9.70
2023-02-11T10:00:35.980Z,11.40
2023-02-11T10:03:52.123Z,9.40
2023-02-11T10:06:50.892Z,9.70
2023-02-11T10:10:02.545Z,10.40
2023-02-11T10:13:09.314Z,9.60
2023-02-11T10:16:07.718Z,10.10
2023-02-11T10:19:14.267Z,10.70
2023-02-11T10:22:14.127Z,10.10
2023-02-11T10:25:19.483Z,9.40
2023-02-11T10:28:19.002Z,10.00
2023-02-11T10:31:18.407Z,9.00
2023-02-11T10:34:11.627Z,10.20
2023-02-11T10:37:02.319Z,9.70
2023-02-11T10:39:53.535Z,11.60
2023-02-11T10:42:48.264Z,12.30
2023-02-11T10:45:40.896Z,19.60
2023-02-11T10:48:44.125Z,25.60
2023-02-11T10:51:35.543Z,15.60
2023-02-11T10:54:28.959Z,12.00
2023-02-11T10:57:22.783Z,9.90
2023-02-11T11:00:34.618Z,9.60
2023-02-11T11:03:34.991Z,10.40
2023-02-11T11:06:34.974Z,10.60
2023-02-11T11:09:44.932Z,9.70
2023-02-11T11:12:49.723Z,9.30
2023-02-11T11:15:40.658Z,9.60
2023-02-11T11:18:31.699Z,9.70
2023-02-11T11:21:26.416Z,9.90
2023-02-11T11:24:24.549Z,8.80
2023-02-11T11:27:26.187Z,10.30
2023-02-11T11:30:21.648Z,9.20
2023-02-11T11:33:22.839Z,8.70
2023-02-11T11:36:16.933Z,10.20
2023-02-11T11:39:22.584Z,9.10
2023-02-11T11:42:29.893Z,8.30
2023-02-11T11:45:28.005Z,9.60
2023-02-11T11:48:23.868Z,9.50
2023-02-11T11:51:15.903Z,9.10
2023-02-11T11:54:16.500Z,9.10
2023-02-11T11:57:18.275Z,9.80
2023-02-11T12:00:18.918Z,9.30
2023-02-11T12:03:42.540Z,8.10
2023-02-11T12:06:45.964Z,10.60
2023-02-11T12:09:50.299Z,10.70
2023-02-11T12:12:51.740Z,9.30
2023-02-11T12:15:50.967Z,9.00
2023-02-11T12:18:56.172Z,10.20
2023-02-11T12:22:05.194Z,12.20
2023-02-11T12:25:19.145Z,9.00
2023-02-11T12:28:25.981Z,9.80
2023-02-11T12:31:34.311Z,9.00
2023-02-11T12:34:54.532Z,9.40
2023-02-11T12:37:59.879Z,9.10
2023-02-11T12:41:02.470Z,8.60
2023-02-11T12:43:53.330Z,9.30
2023-02-11T12:46:51.588Z,8.70
2023-02-11T12:50:05.812Z,9.90
2023-02-11T12:53:13.193Z,9.10
2023-02-11T12:56:13.739Z,9.40
2023-02-11T12:59:14.435Z,9.70
2023-02-11T13:02:14.372Z,9.50
2023-02-11T13:05:14.509Z,9.30
2023-02-11T13:08:12.479Z,9.30
2023-02-11T13:11:08.058Z,9.10
2023-02-11T13:14:05.907Z,9.20
2023-02-11T13:16:58.748Z,8.40
2023-02-11T13:19:53.819Z,9.40
2023-02-11T13:22:50.594Z,8.60
2023-02-11T13:25:50.244Z,9.80
2023-02-11T13:28:52.178Z,10.10
2023-02-11T13:31:42.695Z,7.50
2023-02-11T13:34:58.172Z,8.10
2023-02-11T13:37:53.712Z,8.70
2023-02-11T13:40:47.375Z,9.20
2023-02-11T13:43:39.461Z,9.90
2023-02-11T13:46:32.054Z,8.80
2023-02-11T13:49:26.179Z,9.70
2023-02-11T13:52:27.183Z,8.80
2023-02-11T13:55:27.562Z,9.30
2023-02-11T13:58:36.497Z,9.90
2023-02-11T14:02:23.790Z,10.40
2023-02-11T14:05:51.094Z,8.10
2023-02-11T14:09:11.282Z,11.10
2023-02-11T14:12:41.213Z,8.90
2023-02-11T14:15:41.642Z,8.50
2023-02-11T14:18:59.723Z,10.90
2023-02-11T14:21:51.714Z,16.40
2023-02-11T14:24:54.585Z,8.70
2023-02-11T14:27:55.544Z,9.70
2023-02-11T14:30:59.466Z,10.20
2023-02-11T14:34:07.356Z,11.20
2023-02-11T14:37:19.842Z,10.00
2023-02-11T14:40:23.170Z,10.30
2023-02-11T14:43:19.709Z,9.80
2023-02-11T14:46:11.882Z,8.80
2023-02-11T14:49:06.011Z,11.90
2023-02-11T14:51:59.740Z,9.20
2023-02-11T14:54:52.868Z,10.40
2023-02-11T14:57:45.978Z,10.60
2023-02-11T15:00:36.985Z,8.80
2023-02-11T15:03:33.891Z,10.20
2023-02-11T15:06:26.612Z,10.00
2023-02-11T15:09:24.209Z,9.30
2023-02-11T15:12:24.138Z,10.30
2023-02-11T15:15:19.270Z,9.80
2023-02-11T15:18:11.218Z,8.20
2023-02-11T15:21:02.299Z,9.30
2023-02-11T15:24:06.293Z,8.70
2023-02-11T15:27:16.486Z,11.20
2023-02-11T15:30:27.699Z,10.30
2023-02-11T15:33:26.237Z,9.50
2023-02-11T15:36:18.401Z,8.70
2023-02-11T15:39:35.901Z,12.40
2023-02-11T15:42:43.894Z,8.70
2023-02-11T15:45:44.626Z,8.80
2023-02-11T15:48:39.383Z,12.40
2023-02-11T15:51:33.793Z,8.70
2023-02-11T15:54:28.016Z,7.60
2023-02-11T15:57:19.189Z,9.50
2023-02-11T16:00:17.343Z,7.80
2023-02-11T16:03:08.389Z,8.40
2023-02-11T16:06:00.106Z,8.40
2023-02-11T16:09:04.288Z,12.10
2023-02-11T16:12:00.864Z,10.80
2023-02-11T16:14:52.100Z,9.50
2023-02-11T16:17:45.591Z,9.10
2023-02-11T16:20:36.900Z,9.30
2023-02-11T16:23:30.391Z,9.70
2023-02-11T16:26:29.181Z,9.50
2023-02-11T16:29:26.131Z,8.80
2023-02-11T16:32:22.972Z,8.10
2023-02-11T16:35:15.633Z,8.40
2023-02-11T16:38:06.549Z,9.30
2023-02-11T16:40:57.645Z,11.60
2023-02-11T16:43:48.560Z,10.80
2023-02-11T16:46:40.355Z,9.90
2023-02-11T16:49:32.343Z,11.30
2023-02-11T16:52:24.596Z,10.60
2023-02-11T16:55:16.018Z,12.30
2023-02-11T16:58:06.717Z,12.70
2023-02-11T17:00:57.585Z,12.50
2023-02-11T17:03:48.034Z,14.20
2023-02-11T17:06:38.739Z,12.70
2023-02-11T17:09:31.351Z,12.70
2023-02-11T17:12:22.599Z,11.80
2023-02-11T17:15:14.939Z,11.30
2023-02-11T17:18:06.977Z,13.50
2023-02-11T17:20:57.361Z,10.90
2023-02-11T17:23:48.380Z,12.80
2023-02-11T17:26:39.648Z,11.70
2023-02-11T17:29:30.506Z,11.70
2023-02-11T17:32:21.179Z,12.50
2023-02-11T17:35:13.708Z,10.20
2023-02-11T17:38:04.803Z,13.70
2023-02-11T17:41:02.706Z,12.30
2023-02-11T17:43:53.581Z,12.70
2023-02-11T17:46:44.334Z,12.10
2023-02-11T17:49:35.897Z,11.80
2023-02-11T17:52:28.537Z,12.10
2023-02-11T17:55:20.399Z,11.20
2023-02-11T17:58:13.084Z,11.20
2023-02-11T18:01:03.987Z,11.50
2023-02-11T18:03:55.225Z,12.50
2023-02-11T18:06:47.194Z,15.00
2023-02-11T18:09:44.398Z,13.50
2023-02-11T18:12:35.197Z,12.10
2023-02-11T18:15:26.565Z,12.90
2023-02-11T18:18:17.588Z,13.20
2023-02-11T18:21:10.349Z,13.60
2023-02-11T18:24:06.527Z,12.60
2023-02-11T18:26:58.505Z,12.00
2023-02-11T18:29:49.261Z,12.70
2023-02-11T18:32:40.675Z,12.00
2023-02-11T18:35:31.791Z,13.40
2023-02-11T18:38:23.409Z,14.10
2023-02-11T18:41:14.614Z,12.00
2023-02-11T18:44:06.205Z,12.80
2023-02-11T18:46:57.446Z,12.00
2023-02-11T18:49:48.669Z,10.70
2023-02-11T18:52:39.694Z,10.80
2023-02-11T18:55:31.095Z,11.40
2023-02-11T18:58:22.790Z,10.10
2023-02-11T19:01:19.586Z,11.90
2023-02-11T19:04:12.112Z,11.10
2023-02-11T19:07:04.973Z,11.90
2023-02-11T19:09:56.398Z,12.10
2023-02-11T19:12:48.219Z,12.70
2023-02-11T19:15:41.848Z,11.40
2023-02-11T19:18:32.745Z,12.10
2023-02-11T19:21:23.515Z,10.20
2023-02-11T19:24:25.124Z,10.80
2023-02-11T19:27:16.311Z,11.40
2023-02-11T19:30:08.752Z,12.00
2023-02-11T19:32:59.413Z,14.70
2023-02-11T19:35:57.817Z,12.70
2023-02-11T19:38:52.964Z,11.20
2023-02-11T19:41:45.418Z,12.50
2023-02-11T19:44:36.565Z,12.10
2023-02-11T19:47:28.046Z,12.40
2023-02-11T19:50:24.123Z,10.40
2023-02-11T19:53:15.425Z,12.10
2023-02-11T19:56:07.865Z,11.30
2023-02-11T19:59:09.307Z,9.60
2023-02-11T20:02:01.618Z,10.30
2023-02-11T20:04:52.048Z,10.70
2023-02-11T20:07:44.278Z,9.90
2023-02-11T20:10:36.041Z,10.20
2023-02-11T20:13:30.761Z,9.70
2023-02-11T20:16:27.016Z,10.00
2023-02-11T20:19:25.619Z,10.90
2023-02-11T20:22:16.287Z,11.20
2023-02-11T20:25:08.143Z,12.00
2023-02-11T20:27:59.090Z,11.40
2023-02-11T20:30:59.275Z,11.80
2023-02-11T20:33:50.705Z,11.60
2023-02-11T20:36:42.268Z,11.00
2023-02-11T20:39:33.451Z,10.20
2023-02-11T20:42:27.615Z,10.20
2023-02-11T20:45:19.557Z,9.60
2023-02-11T20:48:10.785Z,11.40
2023-02-11T20:51:05.713Z,11.10
2023-02-11T20:53:59.781Z,11.70
2023-02-11T20:56:57.155Z,12.80
2023-02-11T20:59:48.471Z,11.10
2023-02-11T21:02:40.397Z,11.90
2023-02-11T21:05:32.888Z,10.30
2023-02-11T21:08:24.124Z,11.30
2023-02-11T21:11:14.890Z,10.20
2023-02-11T21:14:06.484Z,11.20
2023-02-11T21:16:58.090Z,11.10
2023-02-11T21:19:50.029Z,11.00
2023-02-11T21:22:41.099Z,11.30
2023-02-11T21:25:31.750Z,11.20
2023-02-11T21:28:26.689Z,13.60
2023-02-11T21:31:24.370Z,15.90
2023-02-11T21:34:16.583Z,16.00
2023-02-11T21:37:08.309Z,16.90
2023-02-11T21:40:00.062Z,15.40
2023-02-11T21:42:51.983Z,15.70
2023-02-11T21:45:48.030Z,15.00
2023-02-11T21:48:39.917Z,12.80
2023-02-11T21:51:38.004Z,13.20
2023-02-11T21:54:32.556Z,12.20
2023-02-11T21:57:24.613Z,14.90
2023-02-11T22:00:19.896Z,11.30
2023-02-11T22:03:11.784Z,13.00
2023-02-11T22:06:13.033Z,11.60
2023-02-11T22:09:06.880Z,12.10
2023-02-11T22:11:57.822Z,11.90
2023-02-11T22:14:49.650Z,11.10
2023-02-11T22:17:41.369Z,12.20
2023-02-11T22:20:32.549Z,11.80
2023-02-11T22:23:24.833Z,10.40
2023-02-11T22:26:18.433Z,9.70
2023-02-11T22:29:11.029Z,10.70
2023-02-11T22:32:01.957Z,9.30
2023-02-11T22:34:53.548Z,10.10
2023-02-11T22:37:45.136Z,10.50
2023-02-11T22:40:36.345Z,11.50
2023-02-11T22:43:28.838Z,11.30
2023-02-11T22:46:21.056Z,12.00
2023-02-11T22:49:15.165Z,11.80
2023-02-11T22:52:06.705Z,12.80
2023-02-11T22:55:00.709Z,11.30
2023-02-11T22:57:51.814Z,9.70
2023-02-11T23:00:44.393Z,10.60
2023-02-11T23:03:36.575Z,8.90
2023-02-11T23:06:28.004Z,9.20
2023-02-11T23:09:20.111Z,9.60
2023-02-11T23:12:11.504Z,11.20
2023-02-11T23:15:04.927Z,10.90
2023-02-11T23:17:56.118Z,12.10
2023-02-11T23:20:47.315Z,10.40
2023-02-11T23:23:39.268Z,11.30
2023-02-11T23:26:30.445Z,13.00
2023-02-11T23:29:21.369Z,10.10
2023-02-11T23:32:12.656Z,11.30
2023-02-11T23:35:04.312Z,11.00
2023-02-11T23:37:56.794Z,11.70
2023-02-11T23:40:48.552Z,11.10
2023-02-11T23:43:40.170Z,9.70
2023-02-11T23:46:31.415Z,9.70
2023-02-11T23:49:22.792Z,9.70
2023-02-11T23:52:14.462Z,10.40
2023-02-11T23:55:06.578Z,9.50
2023-02-11T23:57:57.191Z,9.60
